地図

経路データ

SID SEASON NUMBER BASIN SUBBASIN NAME ISO_TIME NATURE LAT LON WMO_WIND WMO_PRES WMO_AGENCY TRACK_TYPE DIST2LAND LANDFALL IFLAG USA_AGENCY USA_ATCF_ID USA_LAT USA_LON USA_RECORD USA_STATUS USA_WIND USA_PRES USA_SSHS USA_R34_NE USA_R34_SE USA_R34_SW USA_R34_NW USA_R50_NE USA_R50_SE USA_R50_SW USA_R50_NW USA_R64_NE USA_R64_SE USA_R64_SW USA_R64_NW USA_POCI USA_ROCI USA_RMW USA_EYE TOKYO_LAT TOKYO_LON TOKYO_GRADE TOKYO_WIND TOKYO_PRES TOKYO_R50_DIR TOKYO_R50_LONG TOKYO_R50_SHORT TOKYO_R30_DIR TOKYO_R30_LONG TOKYO_R30_SHORT TOKYO_LAND CMA_LAT CMA_LON CMA_CAT CMA_WIND CMA_PRES HKO_LAT HKO_LON HKO_CAT HKO_WIND HKO_PRES NEWDELHI_LAT NEWDELHI_LON NEWDELHI_GRADE NEWDELHI_WIND NEWDELHI_PRES NEWDELHI_CI NEWDELHI_DP NEWDELHI_POCI REUNION_LAT REUNION_LON REUNION_TYPE REUNION_WIND REUNION_PRES REUNION_TNUM REUNION_CI REUNION_RMW REUNION_R34_NE REUNION_R34_SE REUNION_R34_SW REUNION_R34_NW REUNION_R50_NE REUNION_R50_SE REUNION_R50_SW REUNION_R50_NW REUNION_R64_NE REUNION_R64_SE REUNION_R64_SW REUNION_R64_NW BOM_LAT BOM_LON BOM_TYPE BOM_WIND BOM_PRES BOM_TNUM BOM_CI BOM_RMW BOM_R34_NE BOM_R34_SE BOM_R34_SW BOM_R34_NW BOM_R50_NE BOM_R50_SE BOM_R50_SW BOM_R50_NW BOM_R64_NE BOM_R64_SE BOM_R64_SW BOM_R64_NW BOM_ROCI BOM_POCI BOM_EYE BOM_POS_METHOD BOM_PRES_METHOD NADI_LAT NADI_LON NADI_CAT NADI_WIND NADI_PRES WELLINGTON_LAT WELLINGTON_LON WELLINGTON_WIND WELLINGTON_PRES DS824_LAT DS824_LON DS824_STAGE DS824_WIND DS824_PRES TD9636_LAT TD9636_LON TD9636_STAGE TD9636_WIND TD9636_PRES TD9635_LAT TD9635_LON TD9635_WIND TD9635_PRES TD9635_ROCI NEUMANN_LAT NEUMANN_LON NEUMANN_CLASS NEUMANN_WIND NEUMANN_PRES MLC_LAT MLC_LON MLC_CLASS MLC_WIND MLC_PRES USA_GUST BOM_GUST BOM_GUST_PER REUNION_GUST REUNION_GUST_PER USA_SEAHGT USA_SEARAD_NE USA_SEARAD_SE USA_SEARAD_SW USA_SEARAD_NW STORM_SPEED STORM_DIR
1905268N11130 1905 44 WP MM NOT_NAMED 1905-09-24 16:00:00 NR 10.6000 129.800 main 424 408 __________O___ -1 10.6000 129.800 7 6 289
1905268N11130 1905 44 WP MM NOT_NAMED 1905-09-24 18:00:00 NR 10.6645 129.608 main 408 383 __________P___ -1 10.6645 129.608 7 6 289
1905268N11130 1905 44 WP MM NOT_NAMED 1905-09-24 21:00:00 NR 10.7746 129.280 main 383 327 __________P___ -1 10.7746 129.280 7 8 289
1905268N11130 1905 44 WP MM NOT_NAMED 1905-09-25 00:00:00 NR 10.9190 128.848 main 327 262 __________P___ -1 10.9190 128.848 7 11 289
1905268N11130 1905 44 WP MM NOT_NAMED 1905-09-25 03:00:00 NR 11.1181 128.248 main 262 241 __________P___ -1 11.1181 128.248 7 13 289
1905268N11130 1905 44 WP MM NOT_NAMED 1905-09-25 04:00:00 NR 11.2000 128.000 main 241 180 __________O___ -1 11.2000 128.000 3 17 289
1905268N11130 1905 44 WP MM NOT_NAMED 1905-09-25 06:00:00 NR 11.3892 127.426 main 180 93 __________P___ -1 11.3892 127.426 3 20 289
1905268N11130 1905 44 WP MM NOT_NAMED 1905-09-25 09:00:00 NR 11.7227 126.424 main 93 0 __________P___ -1 11.7227 126.424 3 22 289
1905268N11130 1905 44 WP MM NOT_NAMED 1905-09-25 12:00:00 NR 12.0927 125.351 main 0 0 __________P___ -1 12.0927 125.351 3 22 290
1905268N11130 1905 44 WP MM NOT_NAMED 1905-09-25 15:00:00 NR 12.4743 124.317 main 10 0 __________P___ -1 12.4743 124.317 3 21 291
1905268N11130 1905 44 WP MM NOT_NAMED 1905-09-25 16:00:00 NR 12.6000 124.000 main 0 0 __________O___ -1 12.6000 124.000 4 18 294
1905268N11130 1905 44 WP MM NOT_NAMED 1905-09-25 18:00:00 NR 12.8424 123.473 main 15 10 __________P___ -1 12.8424 123.473 4 16 297
1905268N11130 1905 44 WP MM NOT_NAMED 1905-09-25 21:00:00 NR 13.2074 122.764 main 10 0 __________P___ -1 13.2074 122.764 4 15 299
1905268N11130 1905 44 WP MM NOT_NAMED 1905-09-26 00:00:00 NR 13.5629 122.121 main 15 0 __________P___ -1 13.5629 122.121 4 14 299
1905268N11130 1905 44 WP MM NOT_NAMED 1905-09-26 03:00:00 NR 13.8962 121.506 main 0 0 __________P___ -1 13.8962 121.506 4 14 299
1905268N11130 1905 44 WP MM NOT_NAMED 1905-09-26 04:00:00 NR 14.0000 121.300 main 0 0 __________O___ -1 14.0000 121.300 4 14 296
1905268N11130 1905 44 WP MM NOT_NAMED 1905-09-26 06:00:00 NR 14.1915 120.868 main 0 0 __________P___ -1 14.1915 120.868 4 14 294
1905268N11130 1905 44 WP MM NOT_NAMED 1905-09-26 09:00:00 NR 14.4540 120.227 main 21 21 __________P___ -1 14.4540 120.227 4 13 292
1905268N11130 1905 44 WP MM NOT_NAMED 1905-09-26 12:00:00 NR 14.6952 119.584 main 54 65 __________P___ -1 14.6952 119.584 4 13 290
1905268N11130 1905 44 WP MM NOT_NAMED 1905-09-26 15:00:00 NR 14.9246 118.925 main 121 121 __________P___ -1 14.9246 118.925 4 14 290
1905268N11130 1905 44 WP MM NOT_NAMED 1905-09-26 16:00:00 NR 15.0000 118.700 main 136 136 __________O___ -1 15.0000 118.700 4 14 289
1905268N11130 1905 44 WP MM NOT_NAMED 1905-09-26 18:00:00 NR 15.1472 118.249 main 185 183 __________P___ -1 15.1472 118.249 4 14 288
1905268N11130 1905 44 WP MM NOT_NAMED 1905-09-26 21:00:00 NR 15.3618 117.554 main 234 244 __________P___ -1 15.3618 117.554 4 14 288
1905268N11130 1905 44 WP MM NOT_NAMED 1905-09-27 00:00:00 NR 15.5803 116.829 main 313 313 __________P___ -1 15.5803 116.829 4 15 288
1905268N11130 1905 44 WP MM NOT_NAMED 1905-09-27 03:00:00 NR 15.8157 116.065 main 385 396 __________P___ -1 15.8157 116.065 4 16 288
1905268N11130 1905 44 WP MM NOT_NAMED 1905-09-27 04:00:00 NR 15.9000 115.800 main 417 417 __________O___ -1 15.9000 115.800 4 17 288
1905268N11130 1905 44 WP MM NOT_NAMED 1905-09-27 06:00:00 NR 16.0754 115.230 main 481 481 __________P___ -1 16.0754 115.230 4 18 288
1905268N11130 1905 44 WP MM NOT_NAMED 1905-09-27 09:00:00 NR 16.3572 114.336 main 484 386 __________P___ -1 16.3572 114.336 4 18 289
1905268N11130 1905 44 WP MM NOT_NAMED 1905-09-27 12:00:00 NR 16.6609 113.436 main 386 299 __________P___ -1 16.6609 113.436 4 18 290
1905268N11130 1905 44 WP MM NOT_NAMED 1905-09-27 15:00:00 NR 16.9865 112.572 main 299 269 __________P___ -1 16.9865 112.572 4 18 292
1905268N11130 1905 44 WP MM NOT_NAMED 1905-09-27 16:00:00 NR 17.1000 112.300 main 269 215 __________O___ -1 17.1000 112.300 4 17 295
1905268N11130 1905 44 WP MM NOT_NAMED 1905-09-27 18:00:00 NR 17.3345 111.786 main 215 134 __________P___ -1 17.3345 111.786 4 16 297
1905268N11130 1905 44 WP MM NOT_NAMED 1905-09-27 21:00:00 NR 17.7018 111.079 main 134 53 __________P___ -1 17.7018 111.079 4 15 300
1905268N11130 1905 44 WP MM NOT_NAMED 1905-09-28 00:00:00 NR 18.0825 110.427 main 53 0 __________P___ -1 18.0825 110.427 4 14 302
1905268N11130 1905 44 WP MM NOT_NAMED 1905-09-28 03:00:00 NR 18.4703 109.805 main 0 0 __________P___ -1 18.4703 109.805 4 14 303
1905268N11130 1905 44 WP MM NOT_NAMED 1905-09-28 04:00:00 NR 18.6000 109.600 main 0 __________O___ -1 18.6000 109.600 4 14 304

デジタル台風データ・検索

IBTrACS Databaseについて

本データベースは、米国NOAAが公開する1842年以降の世界の熱帯低気圧のベストトラックデータアーカイブInternational Best Track Archive for Climate Stewardship (IBTrACS)を、ウェブで閲覧しやすい形式に変換したものです。

最終更新日:2021-12-03